createdAt,value
2018-07-13T00:00:19.779Z,97.94
2018-07-13T00:02:49.010Z,97.60
2018-07-13T00:05:18.250Z,97.53
2018-07-13T00:07:47.460Z,98.24
2018-07-13T00:10:16.758Z,97.80
2018-07-13T00:12:45.904Z,97.89
2018-07-13T00:15:15.212Z,98.51
2018-07-13T00:17:44.544Z,96.93
2018-07-13T00:20:13.772Z,96.98
2018-07-13T00:22:42.966Z,97.29
2018-07-13T00:25:12.232Z,97.36
2018-07-13T00:27:41.542Z,98.04
2018-07-13T00:30:10.725Z,97.80
2018-07-13T00:32:40.065Z,97.58
2018-07-13T00:35:09.326Z,98.38
2018-07-13T00:37:38.545Z,98.07
2018-07-13T00:40:07.624Z,98.12
2018-07-13T00:42:36.896Z,98.72
2018-07-13T00:45:06.197Z,98.53
2018-07-13T00:47:35.528Z,98.99
2018-07-13T00:50:04.828Z,98.04
2018-07-13T00:52:34.177Z,99.13
2018-07-13T00:55:03.488Z,98.66
2018-07-13T00:57:32.820Z,99.36
2018-07-13T01:00:02.152Z,99.59
2018-07-13T01:02:31.457Z,98.89
2018-07-13T01:05:00.704Z,98.87
2018-07-13T01:07:30.157Z,98.73
2018-07-13T01:09:59.351Z,98.77
2018-07-13T01:12:28.641Z,98.89
2018-07-13T01:14:57.977Z,99.21
2018-07-13T01:17:27.228Z,97.53
2018-07-13T01:19:56.476Z,97.61
2018-07-13T01:22:25.772Z,97.92
2018-07-13T01:24:55.119Z,98.47
2018-07-13T01:27:28.092Z,98.79
2018-07-13T01:29:58.272Z,99.06
2018-07-13T01:32:27.498Z,99.37
2018-07-13T01:34:56.780Z,99.54
2018-07-13T01:37:26.057Z,99.67
2018-07-13T01:39:55.255Z,100.00
2018-07-13T01:42:24.497Z,100.00
2018-07-13T01:44:53.642Z,100.00
2018-07-13T01:47:22.905Z,100.00
2018-07-13T01:49:52.208Z,100.00
2018-07-13T01:52:21.445Z,100.00
2018-07-13T01:54:50.782Z,100.00
2018-07-13T01:57:19.972Z,100.00
2018-07-13T01:59:49.268Z,100.00
2018-07-13T02:02:18.459Z,100.00
2018-07-13T02:04:47.704Z,100.00
2018-07-13T02:07:16.945Z,100.00
2018-07-13T02:09:46.232Z,100.00
2018-07-13T02:12:15.552Z,100.00
2018-07-13T02:14:44.797Z,100.00
2018-07-13T02:17:14.027Z,100.00
2018-07-13T02:19:43.332Z,100.00
2018-07-13T02:22:12.789Z,100.00
2018-07-13T02:24:42.052Z,100.00
2018-07-13T02:27:11.368Z,100.00
2018-07-13T02:29:40.801Z,99.89
2018-07-13T02:32:10.154Z,100.00
2018-07-13T02:34:39.457Z,99.81
2018-07-13T02:37:08.928Z,99.78
2018-07-13T02:39:38.204Z,99.73
2018-07-13T02:42:07.451Z,98.86
2018-07-13T02:44:36.741Z,99.43
2018-07-13T02:47:06.016Z,99.60
2018-07-13T02:49:35.288Z,100.00
2018-07-13T02:52:04.564Z,100.00
2018-07-13T02:54:33.775Z,99.90
2018-07-13T02:57:03.006Z,99.12
2018-07-13T02:59:32.220Z,99.28
2018-07-13T03:02:01.520Z,99.43
2018-07-13T03:04:30.836Z,98.76
2018-07-13T03:07:00.166Z,99.37
2018-07-13T03:09:29.428Z,99.44
2018-07-13T03:11:58.632Z,99.14
2018-07-13T03:14:27.945Z,99.21
2018-07-13T03:16:57.240Z,99.01
2018-07-13T03:19:26.649Z,99.50
2018-07-13T03:21:55.923Z,99.34
2018-07-13T03:24:25.151Z,99.10
2018-07-13T03:26:54.456Z,99.44
2018-07-13T03:29:23.864Z,99.56
2018-07-13T03:31:53.241Z,100.00
2018-07-13T03:34:22.518Z,99.75
2018-07-13T03:36:51.944Z,100.00
2018-07-13T03:39:21.161Z,100.00
2018-07-13T03:41:50.731Z,99.75
2018-07-13T03:44:19.968Z,99.26
2018-07-13T03:46:49.172Z,98.11
2018-07-13T03:49:18.412Z,98.48
2018-07-13T03:51:47.628Z,97.81
2018-07-13T03:54:16.920Z,97.34
2018-07-13T03:56:46.312Z,95.99
2018-07-13T03:59:15.489Z,96.31
2018-07-13T04:01:44.732Z,96.98
2018-07-13T04:04:14.036Z,96.44
2018-07-13T04:06:43.443Z,96.78
2018-07-13T04:09:12.676Z,95.76
2018-07-13T04:11:42.002Z,95.84
2018-07-13T04:14:11.323Z,94.59
2018-07-13T04:16:40.659Z,94.19
2018-07-13T04:19:09.990Z,94.06
2018-07-13T04:21:39.507Z,93.39
2018-07-13T04:24:08.754Z,93.66
2018-07-13T04:26:38.156Z,94.00
2018-07-13T04:29:07.613Z,94.53
2018-07-13T04:31:36.808Z,94.05
2018-07-13T04:34:06.033Z,93.17
2018-07-13T04:36:35.327Z,93.04
2018-07-13T04:39:05.114Z,90.56
2018-07-13T04:41:34.250Z,89.37
2018-07-13T04:44:03.507Z,89.06
2018-07-13T04:46:32.832Z,88.43
2018-07-13T04:49:02.227Z,89.15
2018-07-13T04:51:31.625Z,88.05
2018-07-13T04:54:01.011Z,88.77
2018-07-13T04:56:30.373Z,87.29
2018-07-13T04:58:59.880Z,87.21
2018-07-13T05:01:29.307Z,86.03
2018-07-13T05:03:58.845Z,85.02
2018-07-13T05:06:29.033Z,84.73
2018-07-13T05:08:58.408Z,83.70
2018-07-13T05:11:27.715Z,84.18
2018-07-13T05:13:56.920Z,83.88
2018-07-13T05:16:25.912Z,83.64
2018-07-13T05:18:55.160Z,83.34
2018-07-13T05:21:24.704Z,83.07
2018-07-13T05:23:54.068Z,81.67
2018-07-13T05:26:23.502Z,81.24
2018-07-13T05:28:53.120Z,79.79
2018-07-13T05:31:22.680Z,79.00
2018-07-13T05:33:51.923Z,79.28
2018-07-13T05:36:21.267Z,78.57
2018-07-13T05:38:50.615Z,78.61
2018-07-13T05:41:21.000Z,77.78
2018-07-13T05:43:50.424Z,77.38
2018-07-13T05:46:19.740Z,77.64
2018-07-13T05:48:49.164Z,77.75
2018-07-13T05:51:18.504Z,77.32
2018-07-13T05:53:47.840Z,76.80
2018-07-13T05:56:17.081Z,75.49
2018-07-13T05:58:46.432Z,74.63
2018-07-13T06:01:15.707Z,73.67
2018-07-13T06:03:45.006Z,72.90
2018-07-13T06:06:14.136Z,73.74
2018-07-13T06:08:43.564Z,73.63
2018-07-13T06:11:12.971Z,75.08
2018-07-13T06:13:42.346Z,73.78
2018-07-13T06:16:11.682Z,71.66
2018-07-13T06:18:41.103Z,69.50
2018-07-13T06:21:10.584Z,69.76
2018-07-13T06:23:39.893Z,70.36
2018-07-13T06:26:09.147Z,68.84
2018-07-13T06:28:39.181Z,67.88
2018-07-13T06:31:08.870Z,67.52
2018-07-13T06:33:38.260Z,66.80
2018-07-13T06:36:07.619Z,66.78
2018-07-13T06:38:37.221Z,60.56
2018-07-13T06:41:06.673Z,62.02
2018-07-13T06:43:36.017Z,62.32
2018-07-13T06:46:05.268Z,63.31
2018-07-13T06:48:34.617Z,61.70
2018-07-13T06:51:04.212Z,60.80
2018-07-13T06:53:33.424Z,59.93
2018-07-13T06:56:02.599Z,60.46
2018-07-13T06:58:42.428Z,59.45
2018-07-13T07:01:11.908Z,61.30
2018-07-13T07:04:48.772Z,61.60
2018-07-13T07:07:25.917Z,61.32
2018-07-13T07:09:59.418Z,58.92
2018-07-13T07:13:08.313Z,59.64
2018-07-13T07:15:37.924Z,59.79
2018-07-13T07:18:07.734Z,58.86
2018-07-13T07:20:37.101Z,59.70
2018-07-13T07:23:06.412Z,58.38
2018-07-13T07:25:35.704Z,58.40
2018-07-13T07:28:05.052Z,58.18
2018-07-13T07:30:34.544Z,57.18
2018-07-13T07:33:03.720Z,58.50
2018-07-13T07:35:33.016Z,57.33
2018-07-13T07:38:02.355Z,58.13
2018-07-13T07:40:31.668Z,58.70
2018-07-13T07:43:01.252Z,56.49
2018-07-13T07:45:30.816Z,56.80
2018-07-13T07:48:00.152Z,57.28
2018-07-13T07:50:29.466Z,58.53
2018-07-13T07:52:58.695Z,57.61
2018-07-13T07:55:27.942Z,58.28
2018-07-13T07:57:57.145Z,56.57
2018-07-13T08:00:26.512Z,55.77
2018-07-13T08:02:56.001Z,54.42
2018-07-13T08:05:25.229Z,52.18
2018-07-13T08:07:54.384Z,54.73
2018-07-13T08:10:23.563Z,54.79
2018-07-13T08:12:52.784Z,52.74
2018-07-13T08:15:21.950Z,53.62
2018-07-13T08:17:51.036Z,51.75
2018-07-13T08:20:25.195Z,53.81
2018-07-13T08:23:02.884Z,55.90
2018-07-13T08:25:42.760Z,54.34
2018-07-13T08:28:12.061Z,53.97
2018-07-13T08:30:47.335Z,52.76
2018-07-13T08:33:16.381Z,53.38
2018-07-13T08:35:45.412Z,52.21
2018-07-13T08:38:14.432Z,53.37
2018-07-13T08:40:43.868Z,53.49
2018-07-13T08:43:13.016Z,52.24
2018-07-13T08:45:42.272Z,52.65
2018-07-13T08:48:11.418Z,51.26
2018-07-13T08:50:40.668Z,50.59
2018-07-13T08:53:09.889Z,50.45
2018-07-13T08:55:39.296Z,49.62
2018-07-13T08:58:08.748Z,52.40
2018-07-13T09:00:38.101Z,50.33
2018-07-13T09:03:07.496Z,51.33
2018-07-13T09:05:36.742Z,51.13
2018-07-13T09:08:05.979Z,50.07
2018-07-13T09:10:35.248Z,47.91
2018-07-13T09:13:04.435Z,50.18
2018-07-13T09:15:33.507Z,49.51
2018-07-13T09:18:02.664Z,50.69
2018-07-13T09:20:31.748Z,49.19
2018-07-13T09:23:00.768Z,51.21
2018-07-13T09:25:29.788Z,50.67
2018-07-13T09:27:58.791Z,49.60
2018-07-13T09:30:27.864Z,51.45
2018-07-13T09:32:56.883Z,49.10
2018-07-13T09:35:26.210Z,49.80
2018-07-13T09:37:55.457Z,48.34
2018-07-13T09:40:24.488Z,46.32
2018-07-13T09:42:53.640Z,47.97
2018-07-13T09:45:22.631Z,45.65
2018-07-13T09:47:51.996Z,48.03
2018-07-13T09:50:21.515Z,46.19
2018-07-13T09:52:50.684Z,44.96
2018-07-13T09:55:19.856Z,47.03
2018-07-13T09:57:48.874Z,46.92
2018-07-13T10:00:17.867Z,47.41
2018-07-13T10:02:46.851Z,49.76
2018-07-13T10:05:15.988Z,46.79
2018-07-13T10:07:45.068Z,44.60
2018-07-13T10:10:14.112Z,45.71
2018-07-13T10:12:43.144Z,44.32
2018-07-13T10:15:12.151Z,44.60
2018-07-13T10:17:41.179Z,43.72
2018-07-13T10:20:10.199Z,44.29
2018-07-13T10:22:39.351Z,44.00
2018-07-13T10:25:08.700Z,43.96
2018-07-13T10:27:39.231Z,43.25
2018-07-13T10:30:11.280Z,44.74
2018-07-13T10:32:40.862Z,44.37
2018-07-13T10:35:10.484Z,45.30
2018-07-13T10:37:41.232Z,46.14
2018-07-13T10:40:10.264Z,44.85
2018-07-13T10:42:39.276Z,44.06
2018-07-13T10:45:08.305Z,44.61
2018-07-13T10:47:37.420Z,43.67
2018-07-13T10:50:06.400Z,43.92
2018-07-13T10:52:35.413Z,46.00
2018-07-13T10:55:04.416Z,46.00
2018-07-13T10:57:33.404Z,46.41
2018-07-13T11:00:02.400Z,45.75
2018-07-13T11:02:31.361Z,46.12
2018-07-13T11:05:00.384Z,47.79
2018-07-13T11:07:29.352Z,48.00
2018-07-13T11:09:58.384Z,47.98
2018-07-13T11:12:27.398Z,49.00
2018-07-13T11:14:56.467Z,47.10
2018-07-13T11:17:25.464Z,46.62
2018-07-13T11:19:54.448Z,47.16
2018-07-13T11:22:23.478Z,47.73
2018-07-13T11:24:52.438Z,46.72
2018-07-13T11:27:21.392Z,45.57
2018-07-13T11:29:50.406Z,46.62
2018-07-13T11:32:19.380Z,45.76
2018-07-13T11:34:48.422Z,45.33
2018-07-13T11:37:17.463Z,45.15
2018-07-13T11:39:46.504Z,46.70
2018-07-13T11:42:15.567Z,48.67
2018-07-13T11:44:44.539Z,45.67
2018-07-13T11:47:13.618Z,46.32
2018-07-13T11:49:42.579Z,46.07
2018-07-13T11:52:11.631Z,45.89
2018-07-13T11:54:40.697Z,46.95
2018-07-13T11:57:09.764Z,47.23
2018-07-13T11:59:38.735Z,47.59
2018-07-13T12:02:07.796Z,47.65
2018-07-13T12:04:36.828Z,49.38
2018-07-13T12:07:06.231Z,49.70
2018-07-13T12:09:35.290Z,49.55
2018-07-13T12:12:04.342Z,49.46
2018-07-13T12:17:07.493Z,45.22
2018-07-13T12:19:36.464Z,47.03
2018-07-13T12:22:05.488Z,47.46
2018-07-13T12:24:34.525Z,49.03
2018-07-13T12:27:03.691Z,49.48
2018-07-13T12:29:32.636Z,47.64
2018-07-13T12:32:01.708Z,49.61
2018-07-13T12:34:30.764Z,50.42
2018-07-13T12:36:59.817Z,47.99
2018-07-13T12:39:28.888Z,47.74
2018-07-13T12:41:57.885Z,50.43
2018-07-13T12:44:26.926Z,48.85
2018-07-13T12:46:55.900Z,46.12
2018-07-13T12:49:25.014Z,46.74
2018-07-13T12:51:54.235Z,47.85
2018-07-13T12:54:23.337Z,48.04
2018-07-13T12:56:52.309Z,46.25
2018-07-13T12:59:21.323Z,45.03
2018-07-13T13:01:50.444Z,47.09
2018-07-13T13:04:19.409Z,48.47
2018-07-13T13:06:48.392Z,49.85
2018-07-13T13:09:17.520Z,49.15
2018-07-13T13:11:46.565Z,47.32
2018-07-13T13:14:15.591Z,47.58
2018-07-13T13:16:44.567Z,47.37
2018-07-13T13:19:13.665Z,47.34
2018-07-13T13:21:43.059Z,48.58
2018-07-13T13:24:12.137Z,47.98
2018-07-13T13:26:41.149Z,46.53
2018-07-13T13:29:10.194Z,43.54
2018-07-13T13:31:39.255Z,44.90
2018-07-13T13:34:08.690Z,44.14
2018-07-13T13:36:37.730Z,46.02
2018-07-13T13:39:06.825Z,46.75
2018-07-13T13:41:35.896Z,46.17
2018-07-13T13:44:05.028Z,45.92
2018-07-13T13:46:34.001Z,45.58
2018-07-13T13:49:02.989Z,44.65
2018-07-13T13:51:32.043Z,46.35
2018-07-13T13:54:01.068Z,47.54
2018-07-13T13:56:30.093Z,44.82
2018-07-13T13:58:59.231Z,45.64
2018-07-13T14:01:28.205Z,44.84
2018-07-13T14:03:57.236Z,44.55
2018-07-13T14:06:26.297Z,44.85
2018-07-13T14:08:55.345Z,42.34
2018-07-13T14:11:24.395Z,44.37
2018-07-13T14:13:53.457Z,44.72
2018-07-13T14:16:22.620Z,45.61
2018-07-13T14:18:51.650Z,42.54
2018-07-13T14:21:20.770Z,43.79
2018-07-13T14:23:49.755Z,42.84
2018-07-13T14:26:18.737Z,42.32
2018-07-13T14:28:47.732Z,43.38
2018-07-13T14:31:16.788Z,43.70
2018-07-13T14:33:46.490Z,43.30
2018-07-13T14:36:15.573Z,45.18
2018-07-13T14:38:44.597Z,44.90
2018-07-13T14:41:13.666Z,44.21
2018-07-13T14:43:42.732Z,45.40
2018-07-13T14:46:11.903Z,43.72
2018-07-13T14:48:40.888Z,43.72
2018-07-13T14:51:10.017Z,42.49
2018-07-13T14:53:39.124Z,41.19
2018-07-13T14:56:08.249Z,40.92
2018-07-13T14:58:37.431Z,40.04
2018-07-13T15:01:06.456Z,39.96
2018-07-13T15:03:35.472Z,40.90
2018-07-13T15:06:04.540Z,39.99
2018-07-13T15:08:33.456Z,40.33
2018-07-13T15:11:02.541Z,40.71
2018-07-13T15:13:31.544Z,41.30
2018-07-13T15:16:00.676Z,41.31
2018-07-13T15:18:29.684Z,41.88
2018-07-13T15:20:58.799Z,40.77
2018-07-13T15:23:27.849Z,41.89
2018-07-13T15:25:56.891Z,41.25
2018-07-13T15:28:25.871Z,42.90
2018-07-13T15:31:01.146Z,43.65
2018-07-13T15:33:30.261Z,43.21
2018-07-13T15:35:59.236Z,43.87
2018-07-13T15:38:28.273Z,45.05
2018-07-13T15:40:57.270Z,43.85
2018-07-13T15:43:26.287Z,44.92
2018-07-13T15:45:55.235Z,45.24
2018-07-13T15:48:24.253Z,45.37
2018-07-13T15:50:53.373Z,44.86
2018-07-13T15:53:22.538Z,46.49
2018-07-13T15:55:58.280Z,46.35
2018-07-13T15:58:28.529Z,45.65
2018-07-13T16:00:57.555Z,46.00
2018-07-13T16:03:26.688Z,46.63
2018-07-13T16:05:55.737Z,46.83
2018-07-13T16:08:24.725Z,47.88
2018-07-13T16:10:53.685Z,48.35
2018-07-13T16:13:22.812Z,47.15
2018-07-13T16:15:51.850Z,48.97
2018-07-13T16:18:20.827Z,48.70
2018-07-13T16:20:49.799Z,48.27
2018-07-13T16:23:18.836Z,49.26
2018-07-13T16:25:47.807Z,47.67
2018-07-13T16:28:21.239Z,50.00
2018-07-13T16:30:51.252Z,51.35
2018-07-13T16:33:20.357Z,51.79
2018-07-13T16:35:49.409Z,53.01
2018-07-13T16:38:18.575Z,52.36
2018-07-13T16:40:47.812Z,53.26
2018-07-13T16:43:16.858Z,53.24
2018-07-13T16:45:45.966Z,55.12
2018-07-13T16:48:15.130Z,55.81
2018-07-13T16:50:44.382Z,53.91
2018-07-13T16:53:13.448Z,56.07
2018-07-13T16:55:42.467Z,56.63
2018-07-13T16:58:11.489Z,57.12
2018-07-13T17:00:40.480Z,57.73
2018-07-13T17:03:09.559Z,54.79
2018-07-13T17:05:38.641Z,55.32
2018-07-13T17:08:07.599Z,55.62
2018-07-13T17:10:36.603Z,55.90
2018-07-13T17:13:05.603Z,57.32
2018-07-13T17:15:34.573Z,58.80
2018-07-13T17:18:03.684Z,57.34
2018-07-13T17:20:32.811Z,58.94
2018-07-13T17:23:01.816Z,57.94
2018-07-13T17:25:30.837Z,58.75
2018-07-13T17:28:00.119Z,58.79
2018-07-13T17:30:29.369Z,58.87
2018-07-13T17:32:58.413Z,59.32
2018-07-13T17:35:27.420Z,59.27
2018-07-13T17:37:56.404Z,59.71
2018-07-13T17:40:25.444Z,61.46
2018-07-13T17:42:54.510Z,62.59
2018-07-13T17:45:23.570Z,63.06
2018-07-13T17:47:52.551Z,61.41
2018-07-13T17:50:21.673Z,62.01
2018-07-13T17:52:50.664Z,59.82
2018-07-13T17:55:19.821Z,61.07
2018-07-13T17:57:48.946Z,61.32
2018-07-13T18:00:17.949Z,62.10
2018-07-13T18:02:46.928Z,62.20
2018-07-13T18:05:17.025Z,63.10
2018-07-13T18:07:46.065Z,61.67
2018-07-13T18:10:15.122Z,61.04
2018-07-13T18:12:44.271Z,62.06
2018-07-13T18:15:13.296Z,62.80
2018-07-13T18:17:42.271Z,62.33
2018-07-13T18:20:11.275Z,62.92
2018-07-13T18:22:40.295Z,63.12
2018-07-13T18:25:09.380Z,63.85
2018-07-13T18:27:38.369Z,63.20
2018-07-13T18:30:07.402Z,63.70
2018-07-13T18:32:38.880Z,63.96
2018-07-13T18:35:07.936Z,64.92
2018-07-13T18:37:36.899Z,64.07
2018-07-13T18:40:05.895Z,65.07
2018-07-13T18:42:34.856Z,65.16
2018-07-13T18:45:04.068Z,66.21
2018-07-13T18:47:33.216Z,66.42
2018-07-13T18:50:02.194Z,67.08
2018-07-13T18:52:31.192Z,66.97
2018-07-13T18:55:00.168Z,67.17
2018-07-13T18:57:29.143Z,67.24
2018-07-13T18:59:58.171Z,67.22
2018-07-13T19:02:27.236Z,66.80
2018-07-13T19:04:56.261Z,67.89
2018-07-13T19:07:25.482Z,68.46
2018-07-13T19:09:54.439Z,68.30
2018-07-13T19:12:23.449Z,68.34
2018-07-13T19:14:52.482Z,68.46
2018-07-13T19:17:21.517Z,68.72
2018-07-13T19:19:50.571Z,68.84
2018-07-13T19:22:19.548Z,69.32
2018-07-13T19:24:48.577Z,70.22
2018-07-13T19:27:17.552Z,69.97
2018-07-13T19:29:46.589Z,70.65
2018-07-13T19:32:15.631Z,70.62
2018-07-13T19:34:44.664Z,70.31
2018-07-13T19:37:13.796Z,71.01
2018-07-13T19:39:42.755Z,70.22
2018-07-13T19:42:11.759Z,71.15
2018-07-13T19:44:41.369Z,71.06
2018-07-13T19:47:10.337Z,70.29
2018-07-13T19:49:39.468Z,70.88
2018-07-13T19:52:08.492Z,71.13
2018-07-13T19:54:37.555Z,71.08
2018-07-13T19:57:06.684Z,71.11
2018-07-13T19:59:35.635Z,71.03
2018-07-13T20:02:04.769Z,71.35
2018-07-13T20:04:33.809Z,71.72
2018-07-13T20:07:02.824Z,71.14
2018-07-13T20:09:31.791Z,70.98
2018-07-13T20:12:00.832Z,71.41
2018-07-13T20:14:29.803Z,71.10
2018-07-13T20:16:58.964Z,73.35
2018-07-13T20:19:27.908Z,72.19
2018-07-13T20:21:56.999Z,71.99
2018-07-13T20:24:26.133Z,73.95
2018-07-13T20:26:55.259Z,73.22
2018-07-13T20:29:24.389Z,73.98
2018-07-13T20:31:53.369Z,73.72
2018-07-13T20:34:22.353Z,74.77
2018-07-13T20:36:51.464Z,72.96
2018-07-13T20:39:20.505Z,74.44
2018-07-13T20:41:49.492Z,73.93
2018-07-13T20:44:18.447Z,73.69
2018-07-13T20:46:47.551Z,73.67
2018-07-13T20:49:16.531Z,73.54
2018-07-13T20:51:45.636Z,72.87
2018-07-13T20:54:14.722Z,72.28
2018-07-13T20:56:43.693Z,72.69
2018-07-13T20:59:12.685Z,71.94
2018-07-13T21:01:41.934Z,72.81
2018-07-13T21:04:11.016Z,72.00
2018-07-13T21:06:39.987Z,71.55
2018-07-13T21:09:09.207Z,71.40
2018-07-13T21:11:38.237Z,71.51
2018-07-13T21:14:07.287Z,71.18
2018-07-13T21:16:36.272Z,72.18
2018-07-13T21:19:05.308Z,71.90
2018-07-13T21:21:34.354Z,71.39
2018-07-13T21:24:03.358Z,71.16
2018-07-13T21:26:32.401Z,71.79
2018-07-13T21:29:01.449Z,71.86
2018-07-13T21:31:30.419Z,71.21
2018-07-13T21:33:59.470Z,71.90
2018-07-13T21:36:28.493Z,70.97
2018-07-13T21:38:57.523Z,70.53
2018-07-13T21:41:26.476Z,70.87
2018-07-13T21:43:55.436Z,72.19
2018-07-13T21:46:24.461Z,71.72
2018-07-13T21:48:53.427Z,69.33
2018-07-13T21:51:22.560Z,69.48
2018-07-13T21:53:51.555Z,70.08
2018-07-13T21:56:20.608Z,70.04
2018-07-13T21:58:49.613Z,69.62
2018-07-13T22:01:18.671Z,71.45
2018-07-13T22:03:47.656Z,71.53
2018-07-13T22:06:16.688Z,73.54
2018-07-13T22:08:45.688Z,73.79
2018-07-13T22:11:14.837Z,74.49
2018-07-13T22:13:43.875Z,73.25
2018-07-13T22:16:12.919Z,73.52
2018-07-13T22:18:41.852Z,73.34
2018-07-13T22:21:10.869Z,72.48
2018-07-13T22:23:39.892Z,70.76
2018-07-13T22:26:09.050Z,71.34
2018-07-13T22:28:38.088Z,70.88
2018-07-13T22:31:07.202Z,71.43
2018-07-13T22:33:36.152Z,72.23
2018-07-13T22:36:05.144Z,71.44
2018-07-13T22:38:34.165Z,71.24
2018-07-13T22:41:03.128Z,73.37
2018-07-13T22:43:32.112Z,78.26
2018-07-13T22:46:01.208Z,79.81
2018-07-13T22:48:30.184Z,80.68
2018-07-13T22:50:59.203Z,80.79
2018-07-13T22:53:28.194Z,81.31
2018-07-13T22:55:59.660Z,80.18
2018-07-13T22:58:28.640Z,78.09
2018-07-13T23:00:57.677Z,77.98
2018-07-13T23:03:29.908Z,78.25
2018-07-13T23:06:00.056Z,78.20
2018-07-13T23:08:29.055Z,78.18
2018-07-13T23:10:58.657Z,78.43
2018-07-13T23:13:27.728Z,79.39
2018-07-13T23:15:56.700Z,80.43
2018-07-13T23:18:25.672Z,79.15
2018-07-13T23:20:54.668Z,78.67
2018-07-13T23:23:23.640Z,79.12
2018-07-13T23:25:52.621Z,79.10
2018-07-13T23:28:21.591Z,79.42
2018-07-13T23:30:50.692Z,79.68
2018-07-13T23:33:19.756Z,79.11
2018-07-13T23:35:48.719Z,78.83
2018-07-13T23:38:17.693Z,78.51
2018-07-13T23:40:46.700Z,78.44
2018-07-13T23:43:15.681Z,79.54
2018-07-13T23:45:44.643Z,79.73
2018-07-13T23:48:13.735Z,79.43
2018-07-13T23:50:42.703Z,79.92
2018-07-13T23:53:11.725Z,78.55
2018-07-13T23:55:40.737Z,78.74
2018-07-13T23:58:09.760Z,79.33
